Aérodrome :
LOGIN :

S'inscrire | Disclaimer

   EN    FR    IT 

 










Légende :    VFR   VFR Marginal   IFR   IFR Intensif   IFR Très Intensif
Visi : 
Plafond : 
>= 8 km
>= 3000ft
5 à 8 km
1000 à 3000 ft
1500m à 5 km
500 à 1000 ft
800 à 1500m
200 à 500 ft
< 800m
< 200 ft
Symboles :   Orages  Brouillard  Fortes neiges  Fortes précipitations  Vent > 20 kt
SIGMETs :   Divers  Orages  Givrage  Turbulence  Onde Orograph.  Cendres Volcan.







- Altitude de l'aérodrome : 268 ft
- Code IATA : BFS
- Voir les cartes d'approche


EGAA - Belfast Aldergrove

DERNIER METAR :
  • 131250Z 26018KT 9999 SCT020 SCT046CB 03/01 Q0988

METARs EXPIRÉS :
  • 131220Z 25015KT 9999 SCT013 SCT022CB 03/02 Q0988
  • 131150Z 25013G23KT 9999 SCT013 BKN018 04/03 Q0989
  • 131120Z 26012KT 9999 SCT024 BKN030 04/02 Q0989
  • 131050Z 26012KT 9999 SCT030 SCT037 04/03 Q0989
  • 131020Z 25014KT 9999 SCT015 SCT026CB 04/03 Q0989

TAF TAF EGAA
Valide du 13 à 12h jusqu'au 14 à 12h UTC


131059Z 1312/1412 25014KT 9999 FEW010 SCT025
TEMPO 1312/1406 25017G27KT 2000 SHRASN SHSN BKN004 BKN012CB
PROB40
TEMPO 1316/1322 0400 +SHSN VV///
PROB30
TEMPO 1406/1412 5000 SHRASN BKN008
Pas de NOTAMs connus pour ce terrain.



MET'MAP, la Météo Aéronautique d'un coup d'oeil ! - Copyright ORBIFLY Décembre 2007 - Disclaimer

ORBIFLY MET'MAP TEAM :

Programmation & Développement : Alexandra Zaïnal
Conception & Développement : Baudouin d'Aumeries
Co-Programmation & Développement : Marc-Olivier Méhu
Soutien technique & logistique : Manuel Goepfert

Contact : metmap@orbifly.com




SOURCES & CREDITS :

   NOAA